Impacts METAR Board
IDs:

KATL - Atlanta/Hartsfield I, GA, US

Updated at: 2300 UTC 01 Mar 2021
Potential Impact None Slight Moderate High
Time 01/11Z 01/12Z 01/13Z 01/14Z 01/15Z 01/16Z 01/17Z 01/18Z 01/19Z 01/20Z 01/21Z 01/22Z 01/23Z
Temp64 59 58 58 59 59 60 60 61 61 62 60 57
Dewpt58 55 55 55 55 55 54 54 55 54 52 52 49
Altim29.98 30.02 30.04 30.07 30.09 30.08 30.05 30.05 30.07 30.09 30.10 30.09 30.13
VIS1 10 6 8 10 10 10 10 10 10 10 10 10
CIG18 55 50 60 65 65 60 70 65 34 65 60 85
CoverOVCOVCOVCOVCOVCOVCOVCOVCOVCOVCOVCOVCOVC
FltCatIFRVFRVFRVFRVFRVFRVFRVFRVFRVFRVFRVFRVFR
WXRA---RA BR-RA------------------
WDir340330320300280240240230260290320310330
WSpd18 16 12 8 5 7 6 5 6 10 12 8 10
WGst37 -- -- -- -- -- -- -- -- -- -- -- --
Raw hourly METARs
KATL 011103Z 34018G37KT 1SM R09R/6000VP6000FT RA BKN018TCU BKN046 OVC095 18/14 A2998 RMK AO2 PK WND 32037/1100 RAB02 PRESRR TCU SW-OHD-NE P0000 T01780144
KATL 011152Z 33016KT 10SM FEW012 SCT046 OVC055 15/13 A3002 RMK AO2 PK WND 32037/1100 WSHFT 1050 RAB02E29 SLP160 BINOVC P0008 60008 70008 T01500128 10206 20150 53032
KATL 011252Z 32012KT 6SM -RA BR FEW008 BKN050 OVC075 14/13 A3004 RMK AO2 RAB05 SLP168 P0001 T01440128
KATL 011352Z 30008KT 8SM -RA FEW008 BKN060 OVC075 14/13 A3007 RMK AO2 RAE20B47 SLP179 P0001 T01440128
KATL 011452Z 28005KT 10SM FEW008 BKN065 OVC080 15/13 A3009 RMK AO2 RAE1359B17E50 SLP184 VIRGA NE-SE-SW P0000 60002 T01500128 51021
KATL 011552Z 24007KT 10SM FEW010 BKN065 OVC080 15/13 A3008 RMK AO2 SLP180 VIRGA DSNT NE-SE-SW-NW T01500128
KATL 011652Z 24006KT 10SM FEW012 BKN060 OVC075 16/12 A3005 RMK AO2 SLP172 VIRGA DSNT SW-NW T01560122
KATL 011752Z 23005KT 10SM FEW014 BKN070 OVC085 16/12 A3005 RMK AO2 SLP171 VIRGA ALQDS 60002 T01560122 10156 20144 56012
KATL 011852Z 26006KT 10SM FEW033 BKN065 OVC080 16/13 A3007 RMK AO2 RAB33E43 SLP177 VIRGA DSNT SE-SW P0000 T01610128
KATL 011952Z 29010KT 10SM SCT021 BKN034 OVC085 16/12 A3009 RMK AO2 RAB37E48 SLP184 P0000 T01610122
KATL 012052Z 32012KT 10SM SCT024 BKN065 OVC090 17/11 A3010 RMK AO2 SLP186 SHRA N 60000 T01670111 51015
KATL 012152Z 31008KT 10SM FEW026 BKN060 OVC080 16/11 A3009 RMK AO2 SLP186 SHRA DSNT NW-NE T01560111
KATL 012252Z 33010KT 10SM FEW020 BKN085 OVC100 14/09 A3013 RMK AO2 SLP199 T01390094



Page loaded:  23:27 UTC  |   03:27 PM Pacific  |   04:27 PM Mountain  |   05:27 PM Central  |   06:27 PM Eastern

 

ADVISORIES

FORECASTS

FORECASTS

OBSERVATIONS

USER TOOLS

ABOUT US